Portada
METAR-TAF:

METAR-TAF

Aeroports :

Piešťany, Eslovàquia

latitud: 48-37-30N, longitud: 017-49-43E, altitud: 163 m

Observació

L'informe es va fer fa 35 minuts, a les 15:00 UTC
Vent 10 kt del Sud-Est
Temperatura 30°C
Humitat 35%
Pressió 1017 hPa
Visibilitat 10 km o més
sense núvols per sota de 1500 mi sense presència de cumulonimbus.

METAR: LZPP 181500Z 14010KT CAVOK 30/13 Q1017

Hora: 17:35 (15:35 UTC)

Pronòstic

L'informe es va fer fa 1 hora i 35 minuts, a les 14:00 UTC
Pronòstic vàlid del 18 a les 15 UTC al 19 a les 00 UTC
Vent 8 kt del Est/Sud-Est
Visibilitat 10 km o més
sense núvols per sota de 1500 mi sense presència de cumulonimbus.
Evolucionant progressivament
l' 18 a les 19 UTC al 18 a les 21 UTC
Vent 2 kt amb direcció variable

TAF: LZPP 181400Z 1815/1900 12008KT CAVOK BECMG 1819/1821 VRB02KT

Observacions i pronòstics meteorològics de més de 4000 aeroports (METAR i TAF).

Les estacions disponibles són els punts grocs i vermells al mapa.

Posi el ratolí al punt desitjat per veure el nom de l'estació.

Feu clic per veure les observacions i els pronòstics meteorològics.

Per canviar el mapa: feu clic els botons verds amb una creu de color negre per apropar; al botó verd amb un guió per allunyar la imatge; o en les fletxes verdes per a mapes adjacents.


METAR-TAF: